createdAt,value
2018-12-14T00:00:20.724Z,95657.88
2018-12-14T00:02:49.945Z,95654.20
2018-12-14T00:05:19.184Z,95659.84
2018-12-14T00:07:48.269Z,95655.17
2018-12-14T00:10:17.454Z,95427.69
2018-12-14T00:12:46.579Z,95651.81
2018-12-14T00:15:15.981Z,95654.65
2018-12-14T00:17:45.107Z,95652.77
2018-12-14T00:20:14.354Z,95657.06
2018-12-14T00:22:43.747Z,95651.83
2018-12-14T00:25:13.136Z,95651.97
2018-12-14T00:32:35.197Z,95657.88
2018-12-14T00:35:04.988Z,95660.98
2018-12-14T00:37:34.144Z,95655.73
2018-12-14T00:40:03.750Z,95662.27
2018-12-14T00:42:33.158Z,95661.97
2018-12-14T00:45:02.262Z,95665.86
2018-12-14T00:47:31.442Z,95671.42
2018-12-14T00:50:00.574Z,95668.70
2018-12-14T00:52:29.734Z,95666.91
2018-12-14T00:54:59.071Z,95668.62
2018-12-14T00:57:31.647Z,95666.83
2018-12-14T01:00:00.861Z,95664.50
2018-12-14T01:02:30.109Z,95660.67
2018-12-14T01:04:59.454Z,95665.77
2018-12-14T01:07:30.862Z,95665.70
2018-12-14T01:09:59.988Z,95668.03
2018-12-14T01:12:29.290Z,95674.55
2018-12-14T01:14:58.545Z,95675.83
2018-12-14T01:17:27.690Z,95673.96
2018-12-14T01:19:56.862Z,95678.92
2018-12-14T01:22:25.994Z,95676.35
2018-12-14T01:24:55.135Z,95678.77
2018-12-14T01:27:24.382Z,95680.63
2018-12-14T01:29:53.593Z,95682.20
2018-12-14T01:32:22.833Z,95683.47
2018-12-14T01:34:51.965Z,95687.59
2018-12-14T01:37:21.192Z,95689.09
2018-12-14T01:39:51.870Z,95691.88
2018-12-14T01:42:21.232Z,95690.89
2018-12-14T01:44:50.489Z,95697.36
2018-12-14T01:47:19.797Z,95693.89
2018-12-14T01:49:48.953Z,95689.98
2018-12-14T01:52:18.395Z,95690.66
2018-12-14T01:54:47.727Z,95694.29
2018-12-14T01:57:17.183Z,95696.38
2018-12-14T01:59:46.303Z,95699.22
2018-12-14T02:02:15.599Z,95693.38
2018-12-14T02:04:44.803Z,95690.66
2018-12-14T02:07:14.009Z,95691.05
2018-12-14T02:09:43.211Z,95688.11
2018-12-14T02:12:12.382Z,95686.48
2018-12-14T02:14:41.492Z,95678.15
2018-12-14T02:17:10.659Z,95680.27
2018-12-14T02:19:39.894Z,95677.92
2018-12-14T02:22:08.991Z,95675.30
2018-12-14T02:24:38.267Z,95678.90
2018-12-14T02:27:07.801Z,95673.45
2018-12-14T02:29:37.080Z,95675.30
2018-12-14T02:32:06.298Z,95674.27
2018-12-14T02:34:35.581Z,95672.23
2018-12-14T02:37:04.800Z,95673.35
2018-12-14T02:39:33.926Z,95670.08
2018-12-14T02:42:03.264Z,95674.25
2018-12-14T02:44:32.419Z,95671.80
2018-12-14T02:47:01.530Z,95665.84
2018-12-14T02:49:30.771Z,95671.70
2018-12-14T02:51:59.926Z,95661.58
2018-12-14T02:54:29.123Z,95667.30
2018-12-14T02:56:58.334Z,95670.67
2018-12-14T02:59:27.565Z,95676.72
2018-12-14T03:01:56.735Z,95676.94
2018-12-14T03:04:25.838Z,95677.75
2018-12-14T03:06:54.951Z,95683.02
2018-12-14T03:09:24.121Z,95681.45
2018-12-14T03:11:53.343Z,95681.06
2018-12-14T03:14:22.814Z,95682.50
2018-12-14T03:16:52.314Z,95676.64
2018-12-14T03:19:21.434Z,95676.97
2018-12-14T03:21:50.713Z,95672.39
2018-12-14T03:24:19.970Z,95678.53
2018-12-14T03:26:49.151Z,95673.58
2018-12-14T03:29:18.439Z,95675.70
2018-12-14T03:31:47.735Z,95678.44
2018-12-14T03:34:16.998Z,95680.86
2018-12-14T03:36:46.192Z,95683.56
2018-12-14T03:39:15.358Z,95689.03
2018-12-14T03:41:44.507Z,95700.73
2018-12-14T03:44:13.620Z,95695.34
2018-12-14T03:46:42.839Z,95697.56
2018-12-14T03:49:12.023Z,95699.98
2018-12-14T03:51:41.227Z,95695.23
2018-12-14T03:54:10.430Z,95699.69
2018-12-14T03:56:39.574Z,95698.70
2018-12-14T03:59:08.968Z,95694.81
2018-12-14T04:01:38.251Z,95705.00
2018-12-14T04:04:07.404Z,95708.44
2018-12-14T04:06:36.575Z,95711.22
2018-12-14T04:09:06.831Z,95712.03
2018-12-14T04:11:36.040Z,95711.91
2018-12-14T04:14:05.242Z,95704.84
2018-12-14T04:16:34.446Z,95699.06
2018-12-14T04:19:03.664Z,95711.56
2018-12-14T04:21:33.013Z,95708.73
2018-12-14T04:24:02.231Z,95706.48
2018-12-14T04:26:31.387Z,95714.76
2018-12-14T04:29:00.837Z,95715.97
2018-12-14T04:31:30.030Z,95708.95
2018-12-14T04:33:59.174Z,95718.92
2018-12-14T04:36:28.406Z,95723.09
2018-12-14T04:38:57.534Z,95722.86
2018-12-14T04:41:26.677Z,95727.60
2018-12-14T04:43:55.961Z,95724.41
2018-12-14T04:46:25.053Z,95737.40
2018-12-14T04:48:54.217Z,95728.89
2018-12-14T04:51:29.866Z,95727.96
2018-12-14T04:53:59.048Z,95728.02
2018-12-14T04:56:28.143Z,95736.45
2018-12-14T04:58:57.376Z,95739.58
2018-12-14T05:01:26.559Z,95732.63
2018-12-14T05:03:55.724Z,95731.72
2018-12-14T05:06:24.882Z,95735.30
2018-12-14T05:08:54.123Z,95741.97
2018-12-14T05:11:23.334Z,95739.58
2018-12-14T05:13:52.638Z,95743.19
2018-12-14T05:16:21.842Z,95741.61
2018-12-14T05:18:50.946Z,95742.66
2018-12-14T05:21:20.107Z,95742.48
2018-12-14T05:23:49.265Z,95744.80
2018-12-14T05:26:18.479Z,95772.16
2018-12-14T05:28:47.689Z,95750.03
2018-12-14T05:31:16.902Z,95755.05
2018-12-14T05:33:46.113Z,95751.23
2018-12-14T05:36:15.363Z,95750.20
2018-12-14T05:38:44.494Z,95759.34
2018-12-14T05:41:13.687Z,95758.00
2018-12-14T05:43:42.804Z,95759.81
2018-12-14T05:46:12.009Z,95755.83
2018-12-14T05:48:41.197Z,95763.17
2018-12-14T05:51:10.340Z,95767.86
2018-12-14T05:53:39.515Z,95810.45
2018-12-14T05:56:08.676Z,95767.30
2018-12-14T05:58:37.883Z,95771.22
2018-12-14T06:01:07.203Z,95774.40
2018-12-14T06:03:36.981Z,95774.47
2018-12-14T06:06:06.349Z,95767.44
2018-12-14T06:08:35.587Z,95771.56
2018-12-14T06:11:04.787Z,95771.27
2018-12-14T06:13:36.067Z,95770.17
2018-12-14T06:16:05.350Z,95766.06
2018-12-14T06:18:34.767Z,95768.33
2018-12-14T06:21:04.025Z,95773.50
2018-12-14T06:23:33.327Z,95774.86
2018-12-14T06:26:02.496Z,95782.00
2018-12-14T06:28:31.827Z,95786.34
2018-12-14T06:31:00.986Z,95786.57
2018-12-14T06:33:30.114Z,95790.00
2018-12-14T06:36:00.415Z,95787.22
2018-12-14T06:38:29.530Z,95782.81
2018-12-14T06:40:59.158Z,95791.90
2018-12-14T06:43:28.455Z,95790.75
2018-12-14T06:45:58.283Z,95790.99
2018-12-14T06:48:27.482Z,95790.17
2018-12-14T06:50:57.082Z,95789.07
2018-12-14T06:53:26.263Z,95783.67
2018-12-14T06:55:56.466Z,95783.22
2018-12-14T06:58:26.003Z,95785.37
2018-12-14T07:00:55.139Z,95788.25
2018-12-14T07:03:24.406Z,95789.36
2018-12-14T07:05:53.599Z,95796.70
2018-12-14T07:08:23.084Z,95795.67
2018-12-14T07:10:52.470Z,95796.03
2018-12-14T07:13:22.149Z,95793.58
2018-12-14T07:15:51.398Z,95802.69
2018-12-14T07:18:20.638Z,95803.72
2018-12-14T07:20:50.199Z,95795.34
2018-12-14T07:23:19.312Z,95803.16
2018-12-14T07:25:48.574Z,95809.36
2018-12-14T07:28:17.793Z,95815.27
2018-12-14T07:30:46.934Z,95810.73
2018-12-14T07:33:16.070Z,95783.92
2018-12-14T07:35:45.346Z,95807.05
2018-12-14T07:38:14.530Z,95811.48
2018-12-14T07:40:43.692Z,95821.45
2018-12-14T07:43:12.859Z,95824.87
2018-12-14T07:45:41.980Z,95826.09
2018-12-14T07:48:11.369Z,95826.67
2018-12-14T07:50:40.605Z,95826.50
2018-12-14T07:53:09.731Z,95823.91
2018-12-14T07:55:38.907Z,95833.44
2018-12-14T07:58:08.055Z,95809.63
2018-12-14T08:00:37.223Z,95835.00
2018-12-14T08:03:06.461Z,95843.52
2018-12-14T08:05:35.737Z,95838.68
2018-12-14T08:08:04.975Z,95840.36
2018-12-14T08:10:34.341Z,95844.86
2018-12-14T08:13:03.633Z,95853.31
2018-12-14T08:15:32.953Z,95843.73
2018-12-14T08:18:02.252Z,95850.50
2018-12-14T08:20:34.455Z,95852.59
2018-12-14T08:23:03.551Z,95859.88
2018-12-14T08:25:32.878Z,95858.44
2018-12-14T08:28:01.959Z,95857.63
2018-12-14T08:30:31.506Z,95863.18
2018-12-14T08:33:00.704Z,95865.45
2018-12-14T08:35:29.867Z,95860.91
2018-12-14T08:37:58.954Z,95866.25
2018-12-14T08:40:28.093Z,95872.16
2018-12-14T08:42:57.511Z,95870.47
2018-12-14T08:45:26.706Z,95873.23
2018-12-14T08:47:56.163Z,95872.44
2018-12-14T08:50:25.305Z,95881.22
2018-12-14T08:52:54.446Z,95876.86
2018-12-14T08:55:23.565Z,95880.92
2018-12-14T08:57:53.026Z,95880.70
2018-12-14T09:00:22.238Z,95889.56
2018-12-14T09:02:51.371Z,95889.33
2018-12-14T09:05:20.509Z,95897.43
2018-12-14T09:07:49.673Z,95897.61
2018-12-14T09:10:18.781Z,95896.97
2018-12-14T09:12:47.987Z,95899.78
2018-12-14T09:15:17.087Z,95904.78
2018-12-14T09:17:46.366Z,95899.80
2018-12-14T09:20:15.619Z,95895.09
2018-12-14T09:22:44.885Z,95898.77
2018-12-14T09:25:14.083Z,95898.96
2018-12-14T09:27:43.183Z,95907.65
2018-12-14T09:30:12.267Z,95913.72
2018-12-14T09:32:41.388Z,95906.44
2018-12-14T09:35:10.617Z,95908.70
2018-12-14T09:37:39.713Z,95904.81
2018-12-14T09:40:09.177Z,95913.05
2018-12-14T09:42:38.448Z,95919.14
2018-12-14T09:45:07.945Z,95913.96
2018-12-14T09:50:19.004Z,95911.69
2018-12-14T09:52:48.170Z,95909.33
2018-12-14T09:55:17.278Z,95912.41
2018-12-14T09:57:46.426Z,95912.15
2018-12-14T10:00:15.580Z,95916.55
2018-12-14T10:02:44.690Z,95920.03
2018-12-14T10:05:13.936Z,95922.45
2018-12-14T10:07:46.828Z,95925.38
2018-12-14T10:10:14.429Z,95911.91
2018-12-14T10:12:43.596Z,95913.42
2018-12-14T10:15:12.818Z,95915.86
2018-12-14T10:17:42.052Z,95913.34
2018-12-14T10:20:11.402Z,95921.87
2018-12-14T10:22:41.648Z,95917.02
2018-12-14T10:25:11.170Z,95919.38
2018-12-14T10:27:40.365Z,95915.77
2018-12-14T10:30:10.166Z,95919.48
2018-12-14T10:32:39.382Z,95918.64
2018-12-14T10:35:09.512Z,95917.88
2018-12-14T10:37:38.706Z,95918.64
2018-12-14T10:40:09.664Z,95914.33
2018-12-14T10:42:38.820Z,95916.78
2018-12-14T10:45:08.310Z,95915.56
2018-12-14T10:47:37.566Z,95895.37
2018-12-14T10:50:07.272Z,95916.78
2018-12-14T10:52:36.469Z,95919.77
2018-12-14T10:55:06.465Z,95923.31
2018-12-14T10:57:36.082Z,95930.35
2018-12-14T11:00:11.735Z,95925.58
2018-12-14T11:02:40.831Z,95931.78
2018-12-14T11:05:09.975Z,95930.73
2018-12-14T11:07:39.236Z,95932.51
2018-12-14T11:10:10.043Z,95927.56
2018-12-14T11:12:39.265Z,95934.27
2018-12-14T11:15:08.565Z,95933.47
2018-12-14T11:17:37.718Z,95935.94
2018-12-14T11:20:08.894Z,95928.30
2018-12-14T11:22:38.038Z,95933.11
2018-12-14T11:25:08.303Z,95921.28
2018-12-14T11:27:37.398Z,95920.67
2018-12-14T11:30:08.689Z,95928.88
2018-12-14T11:32:37.782Z,95929.41
2018-12-14T11:35:07.063Z,95924.20
2018-12-14T11:37:36.169Z,95926.27
2018-12-14T11:40:07.435Z,95931.55
2018-12-14T11:42:36.535Z,95925.91
2018-12-14T11:45:07.626Z,95922.27
2018-12-14T11:47:36.847Z,95921.06
2018-12-14T11:50:12.316Z,95924.73
2018-12-14T11:52:41.395Z,95926.76
2018-12-14T11:55:11.510Z,95926.45
2018-12-14T11:57:40.667Z,95925.67
2018-12-14T12:00:13.334Z,95925.41
2018-12-14T12:02:43.227Z,95930.05
2018-12-14T12:05:12.780Z,95924.02
2018-12-14T12:07:43.034Z,95918.83
2018-12-14T12:10:12.282Z,95920.40
2018-12-14T12:12:41.658Z,95920.31
2018-12-14T12:15:10.836Z,95924.23
2018-12-14T12:17:40.715Z,95914.20
2018-12-14T12:20:10.120Z,95920.05
2018-12-14T12:22:39.212Z,95924.20
2018-12-14T12:25:08.524Z,95917.30
2018-12-14T12:27:37.726Z,95918.86
2018-12-14T12:30:08.138Z,95913.63
2018-12-14T12:32:37.483Z,95911.12
2018-12-14T12:35:08.021Z,95914.85
2018-12-14T12:37:37.306Z,95912.73
2018-12-14T12:40:06.541Z,95911.91
2018-12-14T12:42:35.622Z,95917.31
2018-12-14T12:45:05.600Z,95916.42
2018-12-14T12:47:34.810Z,95921.41
2018-12-14T12:50:04.278Z,95918.16
2018-12-14T12:52:33.488Z,95919.20
2018-12-14T12:55:02.678Z,95917.70
2018-12-14T12:57:31.762Z,95914.98
2018-12-14T13:00:00.858Z,95917.59
2018-12-14T13:02:29.949Z,95915.33
2018-12-14T13:04:59.245Z,95914.86
2018-12-14T13:07:28.369Z,95915.14
2018-12-14T13:09:57.473Z,95911.16
2018-12-14T13:12:26.573Z,95912.59
2018-12-14T13:14:55.971Z,95916.71
2018-12-14T13:17:25.143Z,95918.58
2018-12-14T13:19:54.365Z,95915.09
2018-12-14T13:22:23.483Z,95914.92
2018-12-14T13:24:52.741Z,95921.19
2018-12-14T13:27:21.815Z,95925.77
2018-12-14T13:29:51.051Z,95928.09
2018-12-14T13:32:20.327Z,95934.46
2018-12-14T13:34:49.415Z,95934.55
2018-12-14T13:37:18.507Z,95934.62
2018-12-14T13:39:47.841Z,95942.75
2018-12-14T13:42:16.942Z,95947.50
2018-12-14T13:44:46.648Z,95951.66
2018-12-14T13:47:16.348Z,95945.81
2018-12-14T13:49:45.555Z,95948.65
2018-12-14T13:52:14.641Z,95956.84
2018-12-14T13:54:43.754Z,95956.52
2018-12-14T13:57:12.858Z,95964.30
2018-12-14T13:59:49.084Z,95964.39
2018-12-14T14:02:18.294Z,95964.08
2018-12-14T14:04:47.472Z,95963.35
2018-12-14T14:07:16.659Z,95969.94
2018-12-14T14:09:45.791Z,95967.69
2018-12-14T14:12:15.079Z,95966.17
2018-12-14T14:14:44.185Z,95968.52
2018-12-14T14:17:13.292Z,95972.73
2018-12-14T14:19:42.795Z,95972.95
2018-12-14T14:22:12.111Z,95978.81
2018-12-14T14:24:41.220Z,95981.00
2018-12-14T14:27:10.372Z,95992.26
2018-12-14T14:29:39.538Z,95994.63
2018-12-14T14:32:08.991Z,95989.16
2018-12-14T14:34:38.757Z,95987.55
2018-12-14T14:37:07.971Z,95994.95
2018-12-14T14:39:37.090Z,95992.34
2018-12-14T14:42:06.189Z,96000.18
2018-12-14T14:44:35.280Z,96005.34
2018-12-14T14:47:04.646Z,96005.31
2018-12-14T14:49:33.770Z,96004.09
2018-12-14T14:52:02.879Z,96004.77
2018-12-14T14:54:31.976Z,96009.95
2018-12-14T14:57:01.160Z,96007.05
2018-12-14T14:59:30.338Z,96002.77
2018-12-14T15:01:59.654Z,96006.77
2018-12-14T15:04:28.833Z,96009.95
2018-12-14T15:06:57.914Z,96010.56
2018-12-14T15:09:27.028Z,96016.61
2018-12-14T15:11:56.132Z,96017.81
2018-12-14T15:14:25.487Z,96018.79
2018-12-14T15:16:54.616Z,96018.85
2018-12-14T15:19:23.712Z,96021.45
2018-12-14T15:21:52.950Z,96022.37
2018-12-14T15:24:22.150Z,96028.86
2018-12-14T15:26:51.310Z,96029.56
2018-12-14T15:29:20.480Z,96028.29
2018-12-14T15:31:49.577Z,96036.33
2018-12-14T15:34:18.662Z,96035.69
2018-12-14T15:36:47.907Z,96039.31
2018-12-14T15:39:17.105Z,96041.23
2018-12-14T15:41:46.215Z,96046.38
2018-12-14T15:44:15.324Z,96044.55
2018-12-14T15:46:44.502Z,96047.81
2018-12-14T15:49:13.713Z,96050.97
2018-12-14T15:51:42.913Z,96059.16
2018-12-14T15:54:12.014Z,96057.41
2018-12-14T15:56:41.139Z,96054.81
2018-12-14T15:59:10.263Z,96061.51
2018-12-14T16:01:39.372Z,96062.47
2018-12-14T16:04:08.567Z,96063.18
2018-12-14T16:06:37.697Z,96076.17
2018-12-14T16:09:07.790Z,96072.22
2018-12-14T16:11:36.981Z,96078.71
2018-12-14T16:14:06.682Z,96076.22
2018-12-14T16:16:35.827Z,96074.83
2018-12-14T16:19:05.193Z,96076.73
2018-12-14T16:21:34.485Z,96083.52
2018-12-14T16:24:03.667Z,96083.11
2018-12-14T16:26:32.950Z,96086.94
2018-12-14T16:29:02.075Z,96083.05
2018-12-14T16:31:31.164Z,96097.13
2018-12-14T16:34:00.439Z,96090.30
2018-12-14T16:36:29.635Z,96089.63
2018-12-14T16:38:58.961Z,96096.77
2018-12-14T16:41:28.055Z,96097.09
2018-12-14T16:43:57.142Z,96097.66
2018-12-14T16:46:26.418Z,96096.27
2018-12-14T16:48:55.622Z,96095.61
2018-12-14T16:51:24.744Z,96102.59
2018-12-14T16:53:59.229Z,96102.55
2018-12-14T16:56:28.525Z,96107.73
2018-12-14T16:58:57.983Z,96106.47
2018-12-14T17:01:27.255Z,96110.66
2018-12-14T17:03:56.531Z,96108.61
2018-12-14T17:06:25.637Z,96110.96
2018-12-14T17:08:55.010Z,96103.20
2018-12-14T17:11:24.340Z,96113.09
2018-12-14T17:13:53.545Z,96118.86
2018-12-14T17:16:22.755Z,96116.41
2018-12-14T17:18:52.057Z,96117.80
2018-12-14T17:21:21.238Z,96121.16
2018-12-14T17:23:50.558Z,96121.76
2018-12-14T17:26:19.701Z,96121.24
2018-12-14T17:28:48.866Z,96127.63
2018-12-14T17:31:17.983Z,96131.36
2018-12-14T17:33:47.221Z,96132.58
2018-12-14T17:36:16.310Z,96137.99
2018-12-14T17:38:45.404Z,96142.66
2018-12-14T17:41:14.581Z,96142.27
2018-12-14T17:43:43.707Z,96142.27
2018-12-14T17:46:12.856Z,96142.21
2018-12-14T17:48:43.333Z,96142.52
2018-12-14T17:51:12.603Z,96141.50
2018-12-14T17:53:41.697Z,96144.36
2018-12-14T17:56:10.800Z,96142.72
2018-12-14T17:58:40.009Z,96147.36
2018-12-14T18:01:09.156Z,96151.70
2018-12-14T18:03:38.619Z,96152.02
2018-12-14T18:06:07.739Z,96151.45
2018-12-14T18:08:36.842Z,96154.96
2018-12-14T18:11:06.194Z,96155.98
2018-12-14T18:13:35.300Z,96153.55
2018-12-14T18:16:04.691Z,96159.30
2018-12-14T18:18:33.817Z,96161.90
2018-12-14T18:21:02.958Z,96158.32
2018-12-14T18:23:32.264Z,96163.57
2018-12-14T18:26:01.375Z,96156.53
2018-12-14T18:28:30.579Z,96157.95
2018-12-14T18:30:59.705Z,96160.81
2018-12-14T18:33:29.594Z,96166.11
2018-12-14T18:35:58.933Z,96165.34
2018-12-14T18:38:28.058Z,96161.44
2018-12-14T18:40:57.787Z,96169.17
2018-12-14T18:43:27.753Z,96170.71
2018-12-14T18:45:57.664Z,96164.08
2018-12-14T18:48:28.035Z,96162.41
2018-12-14T18:50:57.309Z,96169.28
2018-12-14T18:53:26.585Z,96172.41
2018-12-14T18:55:55.740Z,96169.34
2018-12-14T18:58:24.841Z,96176.22
2018-12-14T19:00:54.201Z,96175.54
2018-12-14T19:03:23.435Z,96179.62
2018-12-14T19:05:52.618Z,96179.18
2018-12-14T19:08:21.830Z,96181.92
2018-12-14T19:10:50.966Z,96187.79
2018-12-14T19:13:20.067Z,96187.70
2018-12-14T19:15:49.188Z,96187.90
2018-12-14T19:18:18.411Z,96193.00
2018-12-14T19:20:47.511Z,96193.77
2018-12-14T19:23:19.664Z,96197.14
2018-12-14T19:25:47.751Z,96202.75
2018-12-14T19:28:17.393Z,96207.48
2018-12-14T19:30:46.604Z,96211.06
2018-12-14T19:33:16.020Z,96216.53
2018-12-14T19:35:45.142Z,96224.00
2018-12-14T19:38:14.544Z,96231.89
2018-12-14T19:40:43.739Z,96233.39
2018-12-14T19:43:13.000Z,96232.55
2018-12-14T19:45:42.297Z,96228.75
2018-12-14T19:48:11.510Z,96229.63
2018-12-14T19:50:40.622Z,96233.58
2018-12-14T19:53:09.786Z,96239.95
2018-12-14T19:55:38.949Z,96245.84
2018-12-14T19:58:08.143Z,96248.19
2018-12-14T20:00:37.298Z,96242.70
2018-12-14T20:03:06.422Z,96245.95
2018-12-14T20:05:35.673Z,96250.65
2018-12-14T20:08:04.962Z,96248.45
2018-12-14T20:10:34.234Z,96250.35
2018-12-14T20:13:03.386Z,96253.63
2018-12-14T20:18:07.453Z,96247.00
2018-12-14T20:20:36.638Z,96253.48
2018-12-14T20:23:05.830Z,96250.63
2018-12-14T20:25:35.009Z,96253.43
2018-12-14T20:28:04.207Z,96254.44
2018-12-14T20:30:33.314Z,96249.00
2018-12-14T20:33:02.586Z,96267.45
2018-12-14T20:35:31.924Z,96268.22
2018-12-14T20:38:01.024Z,96265.67
2018-12-14T20:40:30.428Z,96274.73
2018-12-14T20:42:59.535Z,96268.76
2018-12-14T20:45:28.645Z,96274.70
2018-12-14T20:47:57.797Z,96270.43
2018-12-14T20:50:28.101Z,96276.11
2018-12-14T20:52:59.126Z,96272.27
2018-12-14T20:55:28.639Z,96270.53
2018-12-14T20:57:57.751Z,96274.86
2018-12-14T21:00:26.977Z,96276.16
2018-12-14T21:02:56.080Z,96276.09
2018-12-14T21:05:25.177Z,96283.92
2018-12-14T21:07:54.363Z,96286.55
2018-12-14T21:10:23.485Z,96270.03
2018-12-14T21:12:52.701Z,96286.84
2018-12-14T21:15:21.937Z,96290.53
2018-12-14T21:17:51.188Z,96290.91
2018-12-14T21:20:20.397Z,96289.36
2018-12-14T21:22:49.563Z,96291.83
2018-12-14T21:25:18.669Z,96288.75
2018-12-14T21:27:47.783Z,96290.45
2018-12-14T21:30:16.932Z,96287.48
2018-12-14T21:32:46.062Z,96288.33
2018-12-14T21:35:15.282Z,96281.85
2018-12-14T21:37:44.427Z,96281.64
2018-12-14T21:40:13.614Z,96283.78
2018-12-14T21:42:42.925Z,96284.91
2018-12-14T21:45:12.354Z,96287.34
2018-12-14T21:47:41.451Z,96295.27
2018-12-14T21:50:10.685Z,96294.91
2018-12-14T21:52:39.874Z,96290.91
2018-12-14T21:55:09.502Z,96295.20
2018-12-14T21:57:39.491Z,96293.77
2018-12-14T22:00:11.228Z,96289.63
2018-12-14T22:02:40.559Z,96288.06
2018-12-14T22:05:09.930Z,96290.80
2018-12-14T22:07:39.400Z,96287.59
2018-12-14T22:10:09.507Z,96287.61
2018-12-14T22:12:38.646Z,96280.47
2018-12-14T22:15:08.011Z,96284.05
2018-12-14T22:17:37.179Z,96282.98
2018-12-14T22:20:06.478Z,96278.98
2018-12-14T22:22:35.663Z,96288.75
2018-12-14T22:25:04.978Z,96284.80
2018-12-14T22:30:09.618Z,96291.63
2018-12-14T22:32:38.736Z,96294.13
2018-12-14T22:35:07.949Z,96297.56
2018-12-14T22:37:37.119Z,96293.91
2018-12-14T22:40:07.526Z,96289.77
2018-12-14T22:42:36.701Z,96294.02
2018-12-14T22:45:07.077Z,96287.22
2018-12-14T22:47:36.176Z,96283.81
2018-12-14T22:50:05.961Z,96279.22
2018-12-14T22:52:35.160Z,96281.61
2018-12-14T22:55:04.864Z,96277.79
2018-12-14T22:57:34.219Z,96286.73
2018-12-14T23:00:04.864Z,96287.83
2018-12-14T23:02:36.332Z,96287.05
2018-12-14T23:05:05.720Z,96281.77
2018-12-14T23:07:36.550Z,96279.54
2018-12-14T23:10:06.518Z,96273.94
2018-12-14T23:12:35.595Z,96274.04
2018-12-14T23:15:05.234Z,96277.52
2018-12-14T23:17:34.477Z,96279.14
2018-12-14T23:20:04.132Z,96285.44
2018-12-14T23:22:33.223Z,96274.26
2018-12-14T23:25:02.438Z,96278.40
2018-12-14T23:27:31.706Z,96280.39
2018-12-14T23:30:00.891Z,96277.81
2018-12-14T23:32:30.110Z,96280.05
2018-12-14T23:34:59.222Z,96277.52
2018-12-14T23:37:28.325Z,96278.82
2018-12-14T23:39:57.415Z,96277.44
2018-12-14T23:42:26.654Z,96277.79
2018-12-14T23:44:55.756Z,96281.95
2018-12-14T23:47:24.854Z,96283.25
2018-12-14T23:49:53.942Z,96282.33
2018-12-14T23:52:23.130Z,96283.09
2018-12-14T23:54:52.258Z,96286.70
2018-12-14T23:57:21.471Z,96285.61
2018-12-14T23:59:50.659Z,96289.97
